Time;durP1;ratioP1;P1;durP2;ratioP2;P2;SDS_P1;SDS_P2;PMS_P1;PMS_P2;Temp;Humidity;BMP_temperature;BMP_pressure;BME280_temperature;BME280_humidity;BME280_pressure;Samples;Min_cycle;Max_cycle;Signal;HPM_P1;HPM_P2
2021/12/10 00:02:46;;;;;;;2.70;1.80;;;7.10;84.90;;;6.65;56.62;97379.72;4860013;28;122912;-85
2021/12/10 00:05:27;;;;;;;3.30;1.77;;;6.10;84.00;;;6.65;56.68;97376.97;4833641;28;114037;-86
2021/12/10 00:07:55;;;;;;;4.20;1.80;;;7.80;85.60;;;6.63;56.65;97376.47;4834803;29;112488;-85
2021/12/10 00:10:45;;;;;;;2.63;1.90;;;6.00;83.90;;;6.62;56.36;97370.19;4789507;29;124054;-85
2021/12/10 00:13:13;;;;;;;4.10;2.10;;;6.10;83.90;;;6.56;56.54;97366.00;4822964;29;123267;-85
2021/12/10 00:15:41;;;;;;;3.40;2.17;;;7.10;84.70;;;6.53;56.63;97363.91;4821305;29;112598;-86
2021/12/10 00:18:14;;;;;;;6.30;2.50;;;6.70;84.30;;;6.50;56.64;97350.84;4789109;29;113587;-86
2021/12/10 00:20:45;;;;;;;4.90;2.40;;;5.60;83.40;;;6.47;56.40;97345.16;4787113;29;122431;-87
2021/12/10 00:23:17;;;;;;;2.53;1.60;;;6.90;84.50;;;6.44;56.42;97346.59;4800914;29;122579;-86
2021/12/10 00:25:49;;;;;;;3.30;2.13;;;7.40;84.90;;;6.36;56.12;97336.44;4797756;29;114722;-86
2021/12/10 00:28:47;;;;;;;5.40;2.03;;;6.40;83.90;;;6.30;56.55;97338.53;4789898;29;114388;-86
2021/12/10 00:34:40;;;;;;;5.90;1.93;;;5.20;82.90;;;6.18;57.48;97321.91;4797844;29;123873;-86
2021/12/10 00:37:26;;;;;;;5.40;2.37;;;5.80;83.50;;;6.15;56.59;97320.63;4804446;29;113375;-87
2021/12/10 00:39:59;;;;;;;3.57;1.77;;;5.70;83.50;;;6.12;56.83;97315.75;4817479;29;113166;-86
2021/12/10 00:42:31;;;;;;;6.00;1.73;;;6.90;84.70;;;6.10;57.33;97312.53;4818827;29;123853;-87
2021/12/10 00:45:18;;;;;;;4.30;2.10;;;5.70;83.60;;;6.10;56.79;97311.69;4804249;29;121938;-87
2021/12/10 00:48:23;;;;;;;3.47;1.93;;;5.60;83.50;;;6.05;57.44;97301.72;4804828;29;113907;-84
2021/12/10 00:51:27;;;;;;;4.80;1.70;;;5.50;83.50;;;6.02;56.70;97304.28;4832957;29;112881;-86
2021/12/10 00:57:34;;;;;;;4.83;2.00;;;5.50;83.60;;;5.94;57.72;97281.22;4838541;29;124993;-87
2021/12/10 01:00:09;;;;;;;3.00;1.87;;;6.00;84.20;;;5.96;57.14;97281.69;4822819;29;112732;-87
2021/12/10 01:02:36;;;;;;;3.63;1.90;;;5.20;83.60;;;5.97;56.58;97286.88;4829235;28;112543;-87
2021/12/10 01:08:49;;;;;;;4.73;2.07;;;5.50;83.70;;;5.91;57.22;97274.41;4878421;28;123619;-86
2021/12/10 01:11:51;;;;;;;5.97;1.90;;;7.00;85.10;;;5.90;57.14;97274.72;4874117;28;114372;-88
2021/12/10 01:14:52;;;;;;;4.47;2.07;;;4.30;82.50;;;5.86;57.19;97262.81;4876840;28;113583;-87
2021/12/10 01:25:04;;;;;;;6.53;2.17;;;5.00;83.30;;;5.79;56.94;97254.22;4876630;28;115008;-87
2021/12/10 01:28:09;;;;;;;4.27;2.00;;;5.20;83.50;;;5.78;56.93;97253.44;4860572;28;114710;-87
2021/12/10 01:30:39;;;;;;;3.87;1.80;;;5.20;83.60;;;5.73;57.29;97246.16;4855220;28;123579;-86
2021/12/10 01:33:26;;;;;;;3.87;1.60;;;6.20;84.40;;;5.74;57.21;97245.00;4871786;28;123485;-86
2021/12/10 01:35:55;;;;;;;8.70;1.87;;;5.20;83.50;;;5.65;57.38;97232.44;4857567;28;113692;-87
2021/12/10 01:39:00;;;;;;;2.30;1.53;;;6.70;84.80;;;5.65;57.45;97230.50;4864958;28;112628;-87
2021/12/10 01:41:55;;;;;;;3.10;1.43;;;5.20;83.50;;;5.62;56.61;97220.19;4863668;28;122638;-87
2021/12/10 01:44:32;;;;;;;5.03;1.70;;;5.10;83.40;;;5.62;57.04;97220.19;4845376;29;122252;-87
2021/12/10 01:47:57;;;;;;;2.03;1.70;;;4.40;82.80;;;5.62;57.23;97201.00;4832726;28;113084;-86
2021/12/10 01:50:27;;;;;;;2.07;1.70;;;5.20;83.50;;;5.58;56.96;97202.75;4876535;28;112380;-87
2021/12/10 01:56:39;;;;;;;3.03;1.67;;;5.00;83.20;;;5.50;56.66;97190.66;4879152;28;123653;-87
2021/12/10 01:59:12;;;;;;;1.70;1.43;;;5.10;83.30;;;5.48;56.88;97175.66;4876539;28;115224;-86
2021/12/10 02:01:46;;;;;;;3.23;1.60;;;6.70;84.90;;;5.51;57.18;97180.53;4845518;28;113670;-86
2021/12/10 02:04:52;;;;;;;2.90;1.63;;;6.00;84.10;;;5.50;56.50;97167.94;4845598;28;122643;-86
2021/12/10 02:07:38;;;;;;;2.50;1.50;;;5.00;83.20;;;5.48;56.41;97171.00;4875625;28;124177;-87
2021/12/10 02:10:08;;;;;;;2.57;1.50;;;4.30;82.40;;;5.45;57.40;97160.66;4844627;28;113787;-88
2021/12/10 02:12:56;;;;;;;3.40;1.57;;;4.90;83.10;;;5.48;56.85;97161.97;4860656;28;112480;-88
2021/12/10 02:15:27;;;;;;;1.97;1.60;;;5.00;83.20;;;5.47;57.06;97155.69;4873114;28;124441;-87
2021/12/10 02:18:33;;;;;;;2.30;1.90;;;4.90;83.00;;;5.51;56.86;97136.69;4875265;28;123298;-87
2021/12/10 02:21:07;;;;;;;2.83;1.40;;;4.90;83.00;;;5.50;56.20;97137.81;4860719;28;114988;-87
2021/12/10 02:23:57;;;;;;;2.23;1.47;;;5.00;83.10;;;5.50;56.39;97127.66;4875024;28;114362;-87
2021/12/10 02:27:20;;;;;;;1.93;1.53;;;4.90;82.80;;;5.51;56.72;97121.06;4866237;28;123158;-87
2021/12/10 02:29:48;;;;;;;3.37;1.70;;;5.10;83.00;;;5.48;56.06;97112.66;4878218;28;122332;-88
2021/12/10 02:33:13;;;;;;;3.40;1.57;;;6.00;84.50;;;5.48;55.74;97116.25;4863881;28;112747;-87
2021/12/10 02:36:19;;;;;;;4.03;1.70;;;4.90;82.50;;;5.48;56.25;97109.94;4869549;28;112354;-87
2021/12/10 02:42:27;;;;;;;1.97;1.53;;;4.90;82.30;;;5.37;56.33;97087.53;4897217;28;123767;-88
2021/12/10 02:45:17;;;;;;;2.20;1.60;;;4.90;82.30;;;5.40;55.30;97080.59;4879334;28;113091;-85
2021/12/10 02:47:46;;;;;;;4.13;2.10;;;4.80;82.00;;;5.37;55.93;97076.56;4863242;28;112426;-85
2021/12/10 02:50:53;;;;;;;1.90;1.30;;;4.90;82.10;;;5.42;56.35;97068.19;4878725;28;123690;-86
2021/12/10 02:53:26;;;;;;;1.53;1.30;;;4.80;81.90;;;5.39;56.25;97068.03;4861746;28;123488;-87
2021/12/10 02:55:56;;;;;;;1.53;1.30;;;4.70;81.70;;;5.40;55.62;97069.66;4841186;28;112815;-87
2021/12/10 02:59:03;;;;;;;4.23;1.60;;;4.80;81.80;;;5.41;56.00;97063.88;4824722;29;113514;-86
2021/12/10 03:01:44;;;;;;;2.63;1.57;;;4.90;81.80;;;5.39;55.88;97063.38;4840172;28;122692;-87
2021/12/10 03:04:32;;;;;;;2.70;1.50;;;4.90;81.80;;;5.37;55.52;97054.66;4877779;28;122368;-86
2021/12/10 03:10:41;;;;;;;4.53;1.80;;;4.70;81.40;;;5.30;55.49;97041.47;4872911;28;112410;-86
2021/12/10 03:13:26;;;;;;;5.10;1.60;;;6.00;83.30;;;5.35;55.55;97042.41;4847362;28;123216;-86
2021/12/10 03:15:54;;;;;;;1.97;1.80;;;4.80;81.30;;;5.30;55.62;97041.47;4863192;28;123968;-85
2021/12/10 03:18:39;;;;;;;4.70;2.47;;;4.80;81.50;;;5.34;55.63;97038.88;4862682;28;114874;-86
2021/12/10 03:21:09;;;;;;;4.10;1.60;;;4.90;81.30;;;5.27;55.08;97030.34;4863448;28;114039;-86
2021/12/10 03:23:57;;;;;;;4.83;1.60;;;5.50;81.90;;;5.26;55.09;97026.00;4877817;28;124354;-85
2021/12/10 03:27:03;;;;;;;4.50;1.77;;;4.70;81.10;;;5.24;55.45;97023.59;4862289;28;122381;-86
2021/12/10 03:33:12;;;;;;;2.70;1.43;;;4.70;81.10;;;5.11;55.97;97015.53;4874087;28;115081;-86
2021/12/10 03:35:58;;;;;;;2.10;1.90;;;5.70;81.90;;;5.08;55.00;97015.03;4843573;28;123015;-86
2021/12/10 03:38:45;;;;;;;4.70;1.83;;;4.60;81.10;;;5.04;55.33;97008.59;4862576;28;123444;-86
2021/12/10 03:41:13;;;;;;;3.03;1.50;;;4.60;80.90;;;5.00;55.64;97007.63;4859489;29;113663;-86
2021/12/10 03:43:45;;;;;;;2.13;1.70;;;6.30;82.70;;;5.01;55.33;96997.47;4859727;29;113365;-84
2021/12/10 03:46:14;;;;;;;1.63;1.40;;;6.30;82.60;;;5.02;55.72;97001.81;4844795;28;123366;-87
2021/12/10 03:49:20;;;;;;;5.77;1.80;;;4.60;81.20;;;5.04;55.76;96988.63;4877981;28;123351;-85
2021/12/10 03:51:47;;;;;;;5.17;1.80;;;4.60;81.10;;;5.00;55.03;96979.47;4859604;28;114014;-85
2021/12/10 03:57:57;;;;;;;4.90;2.40;;;3.40;80.20;;;5.01;55.68;96964.66;4871671;28;123924;-86
2021/12/10 04:00:32;;;;;;;1.53;1.43;;;3.00;79.80;;;5.01;55.48;96948.22;4862975;28;123010;-86
2021/12/10 04:03:03;;;;;;;3.30;1.93;;;5.10;81.90;;;5.05;55.89;96938.22;4863025;28;112638;-86
2021/12/10 04:09:12;;;;;;;2.23;1.73;;;4.40;81.10;;;4.99;55.45;96926.63;4879464;28;123925;-86
2021/12/10 04:11:58;;;;;;;3.27;2.03;;;5.90;82.60;;;5.03;55.94;96924.88;4858828;29;122526;-86
2021/12/10 04:14:26;;;;;;;4.67;1.80;;;4.40;81.30;;;5.03;55.31;96918.59;4863303;28;114808;-86
2021/12/10 04:16:56;;;;;;;4.10;1.70;;;4.40;81.50;;;5.02;55.56;96915.06;4877177;28;113757;-85
2021/12/10 04:19:28;;;;;;;2.57;1.80;;;6.10;83.00;;;5.06;55.31;96912.47;4832471;29;122603;-86
2021/12/10 04:22:15;;;;;;;7.30;2.07;;;3.50;80.70;;;5.07;54.92;96914.09;4828054;29;123397;-86
2021/12/10 04:24:42;;;;;;;3.00;1.63;;;4.50;81.40;;;5.03;55.59;96907.66;4843839;29;112895;-86
2021/12/10 04:31:10;;;;;;;2.70;1.70;;;4.50;81.40;;;4.98;55.09;96916.81;4880060;28;124257;-87
2021/12/10 04:41:06;;;;;;;4.80;2.50;;;4.40;80.80;;;4.77;55.72;96908.44;4881551;28;114483;-87
2021/12/10 04:43:52;;;;;;;5.90;2.20;;;4.30;80.80;;;4.78;55.25;96907.34;4878003;28;123674;-87
2021/12/10 04:46:19;;;;;;;3.20;2.10;;;4.30;80.70;;;4.71;55.61;96889.78;4861859;28;123483;-86
2021/12/10 04:49:42;;;;;;;12.03;2.43;;;5.80;82.40;;;4.75;55.31;96886.06;4878306;28;113007;-87
2021/12/10 04:52:09;;;;;;;3.40;2.63;;;4.20;80.90;;;4.66;55.94;96882.53;4864794;28;112518;-86
2021/12/10 04:54:54;;;;;;;7.37;2.67;;;4.80;81.40;;;4.68;55.86;96880.31;4861480;28;123305;-87
2021/12/10 05:00:51;;;;;;;3.00;2.30;;;4.10;81.00;;;4.57;55.60;96868.88;4879706;28;113770;-87
2021/12/10 05:03:39;;;;;;;4.63;2.43;;;4.00;81.10;;;4.60;56.13;96873.69;4862367;28;113544;-86
2021/12/10 05:09:47;;;;;;;4.27;2.50;;;4.10;81.30;;;4.59;56.28;96843.91;4876062;28;123464;-87
2021/12/10 05:12:16;;;;;;;3.77;2.57;;;4.00;81.30;;;4.63;56.03;96848.44;4851504;29;113843;-84
2021/12/10 05:14:42;;;;;;;4.60;2.37;;;5.20;82.20;;;4.60;56.26;96848.28;4836266;29;113470;-87
2021/12/10 05:17:48;;;;;;;5.73;3.03;;;4.20;81.40;;;4.65;56.17;96832.50;4870523;28;122152;-86
2021/12/10 05:20:24;;;;;;;5.30;2.67;;;4.20;81.30;;;4.64;55.81;96830.09;4843725;29;123728;-87
2021/12/10 05:22:52;;;;;;;5.87;3.23;;;5.00;82.10;;;4.61;56.06;96828.00;4836109;28;112958;-88
2021/12/10 05:25:19;;;;;;;5.97;3.13;;;4.90;82.10;;;4.56;55.89;96817.22;4854930;29;114013;-87
2021/12/10 05:27:47;;;;;;;7.80;3.03;;;5.80;82.80;;;4.52;55.85;96817.06;4842080;29;122651;-87
2021/12/10 05:30:19;;;;;;;4.63;2.50;;;5.40;82.70;;;4.51;55.84;96814.66;4843718;28;122850;-87
2021/12/10 05:32:47;;;;;;;3.57;2.60;;;4.00;81.60;;;4.53;56.04;96812.41;4859572;28;113893;-86
2021/12/10 05:35:16;;;;;;;13.23;3.47;;;5.30;82.70;;;4.55;56.13;96807.41;4843224;29;113529;-87
2021/12/10 05:37:44;;;;;;;5.13;3.30;;;4.70;82.30;;;4.53;55.95;96812.41;4850932;28;123265;-87
2021/12/10 05:40:29;;;;;;;4.93;3.13;;;5.50;82.90;;;4.52;56.11;96811.59;4873361;28;123808;-87
2021/12/10 05:42:56;;;;;;;4.00;3.13;;;4.00;81.80;;;4.51;55.64;96818.19;4879632;28;112995;-85
2021/12/10 05:45:24;;;;;;;7.23;3.83;;;5.70;83.00;;;4.53;56.20;96812.41;4867586;28;112189;-83
2021/12/10 05:48:10;;;;;;;5.90;3.30;;;3.90;81.60;;;4.58;56.21;96806.78;4858175;28;123604;-86
2021/12/10 05:50:38;;;;;;;6.27;3.70;;;4.00;81.70;;;4.52;56.01;96799.88;4862524;29;122447;-87
2021/12/10 05:53:06;;;;;;;9.50;3.47;;;4.00;81.80;;;4.53;55.99;96810.47;4860078;28;112859;-87
2021/12/10 05:55:36;;;;;;;3.30;3.00;;;3.50;81.40;;;4.56;56.52;96812.56;4889774;28;111999;-87
2021/12/10 05:58:23;;;;;;;14.03;3.90;;;4.30;82.00;;;4.62;56.03;96813.19;4866512;28;122425;-86
2021/12/10 06:01:02;;;;;;;7.83;3.57;;;4.00;81.70;;;4.60;56.42;96813.53;4881649;28;123569;-87
2021/12/10 06:07:10;;;;;;;12.57;4.10;;;4.10;81.80;;;4.50;55.98;96797.44;4898033;28;115444;-87
2021/12/10 06:09:38;;;;;;;5.23;4.10;;;3.90;81.80;;;4.49;56.27;96789.56;4877988;28;123171;-86
2021/12/10 06:12:07;;;;;;;4.27;3.20;;;5.10;82.80;;;4.50;56.12;96781.03;4862434;28;122256;-87
2021/12/10 06:14:35;;;;;;;4.27;3.03;;;4.00;81.90;;;4.50;56.21;96772.03;4894086;28;113308;-87
2021/12/10 06:17:02;;;;;;;7.10;3.87;;;5.90;83.60;;;4.52;56.28;96753.38;4877807;28;113416;-87
2021/12/10 06:19:30;;;;;;;4.27;3.60;;;4.00;82.00;;;4.54;56.45;96738.25;4875670;28;124550;-87
2021/12/10 06:21:58;;;;;;;5.83;4.50;;;4.00;82.60;;;4.56;56.20;96743.38;4880910;28;123503;-87
2021/12/10 06:24:26;;;;;;;5.73;4.47;;;5.50;83.90;;;4.53;56.57;96735.84;4875621;28;113941;-86
2021/12/10 06:26:53;;;;;;;5.27;3.63;;;2.60;80.90;;;4.60;57.35;96744.34;4891325;28;112559;-86
2021/12/10 06:29:24;;;;;;;4.93;3.17;;;5.00;83.80;;;4.73;58.26;96746.09;4874520;28;124001;-88
2021/12/10 06:31:53;;;;;;;6.53;3.30;;;5.50;85.30;;;4.84;58.56;96741.09;4878751;28;122359;-86
2021/12/10 06:34:20;;;;;;;4.70;3.60;;;4.20;84.90;;;5.02;59.00;96733.63;4859222;28;113252;-84
2021/12/10 06:36:48;;;;;;;7.10;3.90;;;4.20;86.10;;;5.20;59.59;96723.41;4854431;28;113227;-87
2021/12/10 06:39:20;;;;;;;7.70;4.60;;;4.40;87.40;;;5.27;59.65;96726.47;4872287;28;123115;-87
2021/12/10 06:41:52;;;;;;;7.80;4.07;;;6.40;88.60;;;5.21;58.70;96706.69;4878159;28;123298;-86
2021/12/10 06:44:21;;;;;;;5.83;4.10;;;4.50;86.10;;;5.16;58.95;96715.06;4862533;28;114004;-86
2021/12/10 06:46:49;;;;;;;11.00;4.30;;;4.70;85.60;;;5.11;58.45;96696.09;4868336;28;113093;-84
2021/12/10 06:49:18;;;;;;;4.10;3.63;;;4.50;84.90;;;5.05;57.75;96690.00;4874076;28;122994;-85
2021/12/10 06:51:45;;;;;;;5.40;3.73;;;6.00;85.90;;;5.02;57.56;96692.56;4867168;28;123680;-86
2021/12/10 06:54:30;;;;;;;5.70;4.60;;;5.00;84.70;;;4.98;57.45;96684.22;4836484;29;114563;-87
2021/12/10 06:56:57;;;;;;;6.53;4.13;;;4.40;83.90;;;4.94;57.70;96685.19;4842185;28;114219;-86
2021/12/10 06:59:25;;;;;;;5.10;3.80;;;5.80;85.00;;;4.92;57.38;96677.34;4855456;28;125284;-86
2021/12/10 07:01:53;;;;;;;8.43;4.27;;;5.80;84.90;;;4.91;57.13;96669.44;4858299;28;122467;-86
2021/12/10 07:04:20;;;;;;;8.40;3.60;;;4.40;83.40;;;4.92;56.65;96668.31;4860108;28;113773;-85
2021/12/10 07:06:47;;;;;;;6.50;3.60;;;5.60;84.40;;;4.94;56.47;96666.03;4860174;28;113278;-87
2021/12/10 07:09:21;;;;;;;6.23;3.90;;;5.80;84.50;;;4.94;56.91;96652.34;4856979;28;123549;-86
2021/12/10 07:11:50;;;;;;;5.20;3.43;;;6.00;84.60;;;4.93;57.00;96640.63;4871926;28;124170;-87
2021/12/10 07:14:18;;;;;;;10.50;4.30;;;6.00;84.50;;;4.92;57.04;96635.50;4849604;28;113507;-86
2021/12/10 07:17:07;;;;;;;7.00;3.80;;;6.40;84.70;;;4.91;56.72;96637.41;4861238;28;113660;-87
2021/12/10 07:19:34;;;;;;;6.83;4.20;;;4.30;82.90;;;4.91;56.66;96628.41;4836787;29;122461;-87
2021/12/10 07:22:39;;;;;;;13.10;4.80;;;5.70;83.90;;;4.93;56.19;96621.47;4835748;29;122388;-87
2021/12/10 07:25:25;;;;;;;8.70;4.07;;;4.30;82.70;;;4.91;56.15;96604.56;4831721;29;113686;-87
2021/12/10 07:27:53;;;;;;;7.33;4.17;;;4.30;82.60;;;4.86;56.71;96597.38;4822136;29;112441;-87
2021/12/10 07:30:39;;;;;;;6.70;4.70;;;4.40;82.70;;;4.91;55.97;96592.81;4820212;29;122244;-87
2021/12/10 07:34:03;;;;;;;5.77;4.30;;;4.40;82.60;;;4.93;55.97;96593.31;4806355;29;123322;-87
2021/12/10 07:36:30;;;;;;;8.60;4.97;;;4.40;82.60;;;4.85;56.36;96598.47;4836717;29;112934;-88
2021/12/10 07:39:37;;;;;;;5.50;4.50;;;5.80;83.70;;;4.89;56.34;96606.84;4836554;29;112456;-87
2021/12/10 07:42:08;;;;;;;5.20;4.00;;;4.30;82.40;;;4.83;56.08;96614.41;4821349;29;123714;-87
2021/12/10 07:44:37;;;;;;;9.20;4.33;;;4.30;82.10;;;4.77;56.46;96604.00;4850619;29;123964;-87
2021/12/10 07:47:12;;;;;;;7.13;4.97;;;4.30;82.30;;;4.80;56.14;96615.06;4839216;29;113730;-85
2021/12/10 07:49:41;;;;;;;9.70;4.47;;;3.30;81.50;;;4.83;56.28;96597.22;4839413;29;113683;-86
2021/12/10 07:52:16;;;;;;;7.60;4.30;;;4.30;82.50;;;4.82;55.89;96596.41;4823116;29;123363;-87
2021/12/10 07:55:08;;;;;;;4.60;3.43;;;4.30;82.40;;;4.85;55.96;96589.47;4841792;29;123781;-85
2021/12/10 07:57:36;;;;;;;6.37;4.07;;;4.30;82.40;;;4.83;56.05;96584.31;4874227;28;113053;-86
2021/12/10 08:00:07;;;;;;;6.50;4.30;;;4.40;82.40;;;4.87;56.35;96577.06;4859417;28;113322;-86
2021/12/10 08:02:59;;;;;;;9.50;3.80;;;4.30;82.30;;;4.92;56.42;96588.97;4835600;28;123142;-87
2021/12/10 08:05:27;;;;;;;5.63;3.97;;;4.40;82.30;;;4.92;56.16;96589.78;4804779;29;123503;-88
2021/12/10 08:07:55;;;;;;;5.43;3.23;;;4.40;82.30;;;4.96;56.33;96585.22;4787932;29;113666;-85
2021/12/10 08:10:24;;;;;;;5.47;3.47;;;6.30;84.00;;;4.99;55.71;96586.50;4803498;29;113921;-88
2021/12/10 08:12:51;;;;;;;8.20;3.83;;;5.20;82.70;;;5.02;56.19;96577.63;4803325;29;123352;-87
2021/12/10 08:15:17;;;;;;;5.90;4.20;;;4.40;81.90;;;5.00;55.99;96575.25;4799989;29;123464;-86
2021/12/10 08:17:46;;;;;;;4.20;3.20;;;4.50;81.70;;;5.00;55.79;96580.72;4818811;29;113702;-86
2021/12/10 08:20:19;;;;;;;9.30;4.83;;;5.90;82.90;;;4.98;55.48;96577.50;4803336;29;113388;-89
2021/12/10 08:22:48;;;;;;;5.40;3.23;;;6.00;82.90;;;4.95;55.77;96577.38;4818755;29;125034;-88
2021/12/10 08:25:17;;;;;;;5.00;3.50;;;6.50;83.10;;;4.90;55.39;96586.56;4802644;29;123295;-87
2021/12/10 08:27:44;;;;;;;6.93;4.30;;;4.40;81.20;;;4.87;55.38;96588.03;4788926;29;112110;-88
2021/12/10 08:30:14;;;;;;;6.03;4.43;;;4.40;81.00;;;4.84;55.20;96594.16;4788806;29;113529;-89
2021/12/10 08:32:44;;;;;;;5.93;3.70;;;4.40;80.90;;;4.83;55.14;96595.25;4787281;29;123584;-86
2021/12/10 08:35:17;;;;;;;6.90;3.40;;;4.40;80.90;;;4.82;54.71;96584.66;4801519;29;122878;-88
2021/12/10 08:37:44;;;;;;;4.90;3.30;;;5.50;81.70;;;4.80;54.77;96593.19;4815198;29;114291;-88
2021/12/10 08:40:17;;;;;;;8.00;3.67;;;4.50;80.60;;;4.79;55.11;96588.88;4795502;29;114067;-86
2021/12/10 08:42:44;;;;;;;5.90;3.73;;;4.40;80.40;;;4.77;54.61;96590.31;4827069;28;122657;-86
2021/12/10 08:45:12;;;;;;;4.70;3.47;;;4.30;80.10;;;4.79;55.17;96594.34;4859516;28;123832;-85
2021/12/10 08:47:40;;;;;;;6.20;3.60;;;4.40;80.10;;;4.81;54.52;96597.56;4854802;28;113020;-85
2021/12/10 08:50:09;;;;;;;6.50;3.87;;;5.70;81.20;;;4.85;54.42;96593.00;4870833;28;113310;-87
2021/12/10 08:52:35;;;;;;;4.93;3.60;;;4.40;80.10;;;4.88;54.62;96584.13;4852698;28;123838;-86
2021/12/10 08:55:04;;;;;;;5.83;3.93;;;4.40;80.10;;;4.91;54.04;96581.88;4840810;28;121996;-86
2021/12/10 08:57:30;;;;;;;4.80;3.50;;;4.30;80.00;;;4.93;54.13;96593.31;4845125;28;112777;-87
2021/12/10 08:59:58;;;;;;;7.70;4.23;;;5.50;80.70;;;4.94;54.15;96594.91;4867382;28;114045;-86
2021/12/10 09:02:25;;;;;;;5.83;4.03;;;4.40;79.70;;;4.96;54.17;96589.91;4857029;28;123080;-87
2021/12/10 09:04:53;;;;;;;7.97;4.53;;;4.40;80.00;;;4.97;54.01;96586.03;4857809;28;122743;-87
2021/12/10 09:07:20;;;;;;;3.53;3.20;;;4.40;79.60;;;4.97;54.28;96586.84;4824816;29;113424;-85
2021/12/10 09:09:48;;;;;;;5.67;4.13;;;4.40;79.60;;;4.95;54.08;96574.63;4851434;28;111890;-86
2021/12/10 09:12:22;;;;;;;5.20;3.80;;;4.40;79.60;;;4.96;54.48;96568.00;4841459;29;124045;-87
2021/12/10 09:14:53;;;;;;;7.17;4.00;;;5.80;81.00;;;4.95;54.53;96574.63;4869242;28;122924;-84
2021/12/10 09:17:28;;;;;;;7.57;4.00;;;4.50;79.80;;;4.97;54.42;96558.66;4858500;28;113607;-87
2021/12/10 09:19:58;;;;;;;4.77;3.27;;;6.20;81.40;;;4.94;53.82;96570.28;4875132;28;112984;-85
2021/12/10 09:22:25;;;;;;;5.83;3.73;;;4.40;79.60;;;4.92;54.44;96556.94;4842527;28;123120;-87
2021/12/10 09:24:54;;;;;;;4.57;3.60;;;5.10;80.20;;;4.93;54.17;96555.00;4870859;28;122381;-88
2021/12/10 09:27:24;;;;;;;5.17;3.50;;;4.40;79.60;;;4.95;53.90;96550.00;4852748;29;115640;-86
2021/12/10 09:29:54;;;;;;;5.43;3.40;;;6.20;81.30;;;4.99;54.24;96546.25;4855596;28;114308;-89
2021/12/10 09:32:24;;;;;;;4.47;3.30;;;4.70;79.90;;;5.03;54.35;96546.41;4842793;28;123334;-88
2021/12/10 09:34:56;;;;;;;5.37;3.13;;;5.70;80.70;;;5.07;53.60;96541.88;4847294;28;122804;-87
2021/12/10 09:37:24;;;;;;;5.57;3.53;;;4.60;79.60;;;5.11;53.31;96542.03;4837562;29;113242;-86
2021/12/10 09:39:52;;;;;;;5.43;3.00;;;3.40;78.30;;;5.13;53.39;96529.59;4847649;28;114393;-88
2021/12/10 09:42:22;;;;;;;5.40;3.40;;;4.60;79.20;;;5.19;53.59;96522.00;4862019;28;124238;-86
2021/12/10 09:44:54;;;;;;;3.70;2.87;;;4.70;79.30;;;5.26;53.44;96528.50;4824831;29;122717;-86
2021/12/10 09:47:22;;;;;;;3.70;2.70;;;4.70;79.00;;;5.28;53.00;96515.31;4854928;28;113479;-88
2021/12/10 09:49:53;;;;;;;4.83;2.60;;;4.70;78.60;;;5.35;52.24;96508.47;4869451;28;114287;-86
2021/12/10 09:52:25;;;;;;;7.90;3.00;;;4.70;78.30;;;5.37;52.45;96511.69;4866403;28;122713;-87
2021/12/10 09:54:52;;;;;;;2.93;2.40;;;4.80;78.10;;;5.39;51.49;96498.47;4860332;28;123059;-87
2021/12/10 09:57:27;;;;;;;2.97;2.40;;;5.80;78.60;;;5.41;51.55;96493.47;4839854;29;113454;-85
2021/12/10 09:59:56;;;;;;;3.10;2.47;;;6.40;78.80;;;5.44;51.92;96498.28;4843313;28;113387;-87
2021/12/10 10:02:42;;;;;;;3.30;2.87;;;5.50;78.20;;;5.53;51.50;96501.72;4854889;28;123962;-88
2021/12/10 10:05:10;;;;;;;4.57;2.23;;;4.90;77.20;;;5.54;51.96;96501.41;4872141;28;124651;-87
2021/12/10 10:07:38;;;;;;;3.10;2.30;;;5.70;77.80;;;5.55;51.06;96488.50;4871797;28;114359;-88
2021/12/10 10:10:14;;;;;;;4.00;2.10;;;4.90;76.80;;;5.64;51.85;96485.66;4854825;28;111816;-87
2021/12/10 10:12:45;;;;;;;3.27;2.20;;;5.00;77.10;;;5.65;51.19;96479.06;4858852;28;124149;-84
2021/12/10 10:15:19;;;;;;;6.73;2.83;;;5.00;76.80;;;5.68;50.69;96475.66;4871074;28;122933;-88
2021/12/10 10:17:46;;;;;;;3.30;1.90;;;6.10;77.50;;;5.72;50.60;96476.56;4862482;28;114519;-88
2021/12/10 10:20:17;;;;;;;2.20;2.00;;;5.60;76.90;;;5.75;51.21;96457.53;4862199;28;113886;-84
2021/12/10 10:22:45;;;;;;;3.77;2.40;;;5.10;76.40;;;5.78;50.89;96450.56;4852014;28;123962;-87
2021/12/10 10:25:17;;;;;;;2.10;1.90;;;5.20;76.20;;;5.82;50.71;96447.94;4848495;28;123796;-87
2021/12/10 10:27:45;;;;;;;2.90;1.97;;;5.20;76.00;;;5.81;50.50;96449.88;4837647;28;113473;-88
2021/12/10 10:30:24;;;;;;;2.83;2.20;;;5.60;76.00;;;5.86;49.63;96451.63;4862483;28;113500;-88
2021/12/10 10:32:53;;;;;;;2.80;2.10;;;6.60;76.80;;;5.85;50.35;96436.28;4840006;29;122616;-87
2021/12/10 10:35:27;;;;;;;4.60;2.00;;;5.30;75.40;;;5.90;49.97;96436.88;4855254;28;123746;-88
2021/12/10 10:37:57;;;;;;;139.07;46.93;;;5.30;75.30;;;5.94;50.17;96431.56;4847538;28;113330;-89
2021/12/10 10:40:31;;;;;;;83.53;28.33;;;5.30;75.20;;;5.97;50.60;96425.41;4851765;29;114080;-87
2021/12/10 10:42:58;;;;;;;33.37;13.13;;;6.70;76.60;;;6.01;50.21;96420.03;4851535;28;123613;-87
2021/12/10 10:45:29;;;;;;;21.67;7.70;;;5.40;75.10;;;6.05;49.67;96424.50;4849731;28;122903;-85
2021/12/10 10:47:57;;;;;;;8.90;3.83;;;5.50;74.90;;;6.08;49.76;96426.53;4846578;28;114149;-86
2021/12/10 10:50:31;;;;;;;5.70;3.13;;;5.40;74.10;;;6.14;48.94;96407.94;4854524;28;112206;-87
2021/12/10 10:53:09;;;;;;;3.73;2.30;;;5.50;74.30;;;6.19;49.44;96413.97;4862035;28;123709;-89
2021/12/10 10:55:41;;;;;;;4.03;2.10;;;5.50;74.00;;;6.22;48.67;96398.78;4863600;28;123681;-88
2021/12/10 10:58:16;;;;;;;2.53;1.90;;;5.50;73.80;;;6.28;48.46;96396.63;4870175;28;113538;-88
2021/12/10 11:01:14;;;;;;;2.30;1.70;;;5.60;73.40;;;6.31;48.32;96393.19;4871953;28;113172;-87
2021/12/10 11:03:51;;;;;;;5.83;1.67;;;5.60;73.10;;;6.35;48.46;96392.16;4875580;28;123257;-87
2021/12/10 11:06:29;;;;;;;4.30;1.80;;;6.40;73.80;;;6.40;48.03;96374.69;4873373;28;123952;-89
2021/12/10 11:09:17;;;;;;;4.03;1.97;;;6.10;73.40;;;6.44;47.31;96380.25;4869189;28;114894;-86
2021/12/10 11:11:53;;;;;;;3.37;1.50;;;5.80;72.30;;;6.44;47.93;96366.53;4879351;28;115886;-88
2021/12/10 11:15:17;;;;;;;2.83;1.53;;;5.80;72.00;;;6.47;46.95;96365.84;4875729;28;123412;-88
2021/12/10 11:17:50;;;;;;;1.47;1.37;;;4.90;71.00;;;6.46;46.88;96369.75;4876121;28;123604;-86
2021/12/10 11:20:31;;;;;;;1.77;1.53;;;7.40;73.00;;;6.49;46.67;96372.59;4870925;28;113269;-88
2021/12/10 11:23:07;;;;;;;2.67;1.87;;;5.90;71.30;;;6.54;46.63;96383.34;4876346;28;113387;-87
2021/12/10 11:25:55;;;;;;;2.60;1.77;;;5.90;71.10;;;6.54;45.86;96377.84;4863355;28;123282;-86
2021/12/10 11:28:32;;;;;;;2.80;1.90;;;5.90;70.10;;;6.53;45.69;96383.66;4879209;28;123327;-87
2021/12/10 11:31:15;;;;;;;1.80;1.70;;;6.50;70.10;;;6.54;45.43;96388.03;4860026;28;113351;-88
2021/12/10 11:33:51;;;;;;;2.33;1.50;;;5.90;68.90;;;6.54;45.51;96399.00;4872133;28;113584;-87
2021/12/10 11:36:24;;;;;;;2.50;1.73;;;7.50;70.50;;;6.56;45.49;96392.03;4877141;28;123319;-85
2021/12/10 11:38:56;;;;;;;7.33;1.87;;;7.10;69.90;;;6.57;45.18;96404.59;4885237;28;123374;-84
2021/12/10 11:41:30;;;;;;;1.60;1.37;;;6.20;68.30;;;6.56;45.46;96392.03;4892677;28;113724;-82
2021/12/10 11:44:27;;;;;;;1.20;1.10;;;6.90;69.10;;;6.54;44.87;96407.22;4876401;28;113653;-85
2021/12/10 11:49:40;;;;;;;1.40;1.30;;;5.90;67.60;;;6.42;45.75;96394.31;4872157;28;124215;-83
2021/12/10 11:52:18;;;;;;;1.83;1.40;;;5.90;68.50;;;6.33;46.23;96415.56;4873030;28;114886;-84
2021/12/10 11:54:52;;;;;;;2.50;1.30;;;6.10;69.60;;;6.27;47.82;96412.28;4875087;28;113705;-86
2021/12/10 11:57:25;;;;;;;2.87;1.50;;;6.70;72.00;;;6.22;48.60;96401.53;4888575;28;123364;-88
2021/12/10 12:00:12;;;;;;;1.80;1.57;;;5.80;71.40;;;6.16;49.03;96400.97;4877351;28;123766;-86
2021/12/10 12:03:07;;;;;;;1.63;1.20;;;5.70;72.40;;;6.08;49.24;96414.78;4891331;28;115628;-86
2021/12/10 12:05:40;;;;;;;1.40;1.13;;;5.70;73.00;;;6.00;50.38;96411.00;4876874;28;113832;-85
2021/12/10 12:08:11;;;;;;;1.50;1.40;;;6.00;74.00;;;5.95;50.73;96408.50;4890600;28;124390;-85
2021/12/10 12:10:47;;;;;;;2.63;1.50;;;5.70;74.70;;;5.90;51.00;96403.19;4870734;28;123764;-86